createdAt,value
2023-05-09T00:01:13.678Z,17.40
2023-05-09T00:03:43.099Z,17.20
2023-05-09T00:06:13.712Z,19.17
2023-05-09T00:08:41.554Z,19.17
2023-05-09T00:11:17.923Z,17.77
2023-05-09T00:13:46.020Z,17.03
2023-05-09T00:16:16.415Z,18.23
2023-05-09T00:18:44.902Z,19.90
2023-05-09T00:21:17.503Z,19.40
2023-05-09T00:23:44.903Z,18.53
2023-05-09T00:26:13.160Z,18.10
2023-05-09T00:28:46.345Z,19.37
2023-05-09T00:31:16.573Z,18.30
2023-05-09T00:33:44.004Z,17.97
2023-05-09T00:36:13.189Z,19.80
2023-05-09T00:38:41.088Z,19.93
2023-05-09T00:41:08.853Z,18.80
2023-05-09T00:43:38.796Z,19.07
2023-05-09T00:46:06.933Z,19.97
2023-05-09T00:48:35.638Z,18.90
2023-05-09T00:51:03.489Z,19.70
2023-05-09T00:53:31.010Z,19.47
2023-05-09T00:56:01.008Z,19.50
2023-05-09T00:58:29.173Z,19.13
2023-05-09T01:01:02.101Z,19.70
2023-05-09T01:03:30.082Z,19.57
2023-05-09T01:06:07.534Z,19.60
2023-05-09T01:08:42.961Z,20.60
2023-05-09T01:11:12.682Z,19.33
2023-05-09T01:13:55.601Z,19.70
2023-05-09T01:16:29.327Z,20.57
2023-05-09T01:18:58.501Z,19.50
2023-05-09T01:21:29.241Z,18.70
2023-05-09T01:24:15.608Z,19.43
2023-05-09T01:26:42.999Z,19.23
2023-05-09T01:29:16.437Z,19.13
2023-05-09T01:31:45.457Z,19.07
2023-05-09T01:34:12.998Z,18.90
2023-05-09T01:36:42.724Z,19.43
2023-05-09T01:39:14.993Z,19.67
2023-05-09T01:41:42.584Z,19.43
2023-05-09T01:44:11.840Z,18.10
2023-05-09T01:46:41.006Z,19.17
2023-05-09T01:49:09.638Z,18.50
2023-05-09T01:51:38.285Z,19.77
2023-05-09T01:54:06.947Z,19.73
2023-05-09T01:56:36.312Z,20.03
2023-05-09T01:59:04.120Z,20.33
2023-05-09T02:01:31.846Z,19.37
2023-05-09T02:03:59.302Z,19.20
2023-05-09T02:06:29.896Z,19.60
2023-05-09T02:08:58.513Z,19.60
2023-05-09T02:11:26.507Z,19.50
2023-05-09T02:13:54.354Z,18.70
2023-05-09T02:16:22.563Z,18.67
2023-05-09T02:18:49.914Z,18.70
2023-05-09T02:21:17.354Z,19.23
2023-05-09T02:23:45.335Z,18.53
2023-05-09T02:26:13.086Z,19.30
2023-05-09T02:28:41.047Z,18.93
2023-05-09T02:31:08.983Z,18.80
2023-05-09T02:33:37.770Z,19.23
2023-05-09T02:36:06.061Z,19.57
2023-05-09T02:38:34.037Z,18.97
2023-05-09T02:41:03.260Z,19.00
2023-05-09T02:43:31.998Z,19.23
2023-05-09T02:45:59.579Z,19.47
2023-05-09T02:48:29.872Z,19.50
2023-05-09T02:50:58.270Z,19.70
2023-05-09T02:53:26.213Z,19.90
2023-05-09T02:55:53.971Z,20.10
2023-05-09T02:58:21.681Z,19.03
2023-05-09T03:00:49.112Z,18.50
2023-05-09T03:03:18.111Z,20.63
2023-05-09T03:05:46.475Z,19.60
2023-05-09T03:08:14.139Z,18.27
2023-05-09T03:10:41.679Z,20.77
2023-05-09T03:13:10.056Z,17.90
2023-05-09T03:15:37.627Z,20.07
2023-05-09T03:18:06.202Z,20.80
2023-05-09T03:20:33.840Z,19.70
2023-05-09T03:23:02.144Z,20.30
2023-05-09T03:25:29.827Z,20.93
2023-05-09T03:27:57.136Z,20.97
2023-05-09T03:30:24.831Z,18.90
2023-05-09T03:32:52.601Z,20.97
2023-05-09T03:35:20.165Z,20.10
2023-05-09T03:37:47.585Z,20.77
2023-05-09T03:40:14.953Z,20.90
2023-05-09T03:42:49.882Z,22.13
2023-05-09T03:45:17.183Z,22.10
2023-05-09T03:47:46.530Z,20.57
2023-05-09T03:50:14.540Z,21.33
2023-05-09T03:52:42.983Z,19.30
2023-05-09T03:55:10.640Z,20.90
2023-05-09T03:57:37.943Z,21.67
2023-05-09T04:00:06.660Z,20.77
2023-05-09T04:02:41.246Z,19.07
2023-05-09T04:05:12.273Z,20.97
2023-05-09T04:07:39.828Z,20.37
2023-05-09T04:10:08.084Z,19.97
2023-05-09T04:12:35.590Z,25.20
2023-05-09T04:15:02.941Z,20.97
2023-05-09T04:17:31.584Z,20.43
2023-05-09T04:19:58.914Z,19.67
2023-05-09T04:22:26.299Z,21.87
2023-05-09T04:24:53.611Z,21.10
2023-05-09T04:27:20.913Z,20.50
2023-05-09T04:29:49.243Z,20.70
2023-05-09T04:32:16.548Z,20.67
2023-05-09T04:34:44.177Z,20.63
2023-05-09T04:37:18.234Z,22.90
2023-05-09T04:39:46.145Z,21.17
2023-05-09T04:42:25.649Z,20.83
2023-05-09T04:44:53.251Z,22.30
2023-05-09T04:47:22.116Z,21.70
2023-05-09T04:49:49.360Z,23.37
2023-05-09T04:52:16.981Z,20.60
2023-05-09T04:54:44.565Z,20.73
2023-05-09T04:57:18.078Z,21.73
2023-05-09T04:59:50.784Z,20.93
2023-05-09T05:02:18.863Z,22.57
2023-05-09T05:04:49.068Z,21.10
2023-05-09T05:07:16.524Z,21.20
2023-05-09T05:09:44.985Z,20.43
2023-05-09T05:12:13.677Z,21.57
2023-05-09T05:14:42.564Z,22.07
2023-05-09T05:17:12.578Z,20.47
2023-05-09T05:19:39.805Z,22.37
2023-05-09T05:22:08.466Z,19.80
2023-05-09T05:24:39.591Z,21.03
2023-05-09T05:27:06.762Z,30.17
2023-05-09T05:29:34.525Z,21.60
2023-05-09T05:32:01.803Z,21.53
2023-05-09T05:34:29.084Z,21.60
2023-05-09T05:36:56.340Z,20.80
2023-05-09T05:39:23.486Z,21.03
2023-05-09T05:41:52.776Z,20.70
2023-05-09T05:44:20.090Z,21.23
2023-05-09T05:46:47.796Z,20.63
2023-05-09T05:49:15.181Z,22.20
2023-05-09T05:51:42.388Z,20.90
2023-05-09T05:54:11.029Z,20.03
2023-05-09T05:56:38.415Z,20.47
2023-05-09T05:59:12.532Z,21.50
2023-05-09T06:01:40.652Z,21.17
2023-05-09T06:04:08.033Z,20.97
2023-05-09T06:06:35.316Z,19.93
2023-05-09T06:09:03.873Z,20.63
2023-05-09T06:11:30.995Z,20.37
2023-05-09T06:13:59.210Z,20.30
2023-05-09T06:16:27.540Z,19.77
2023-05-09T06:18:56.079Z,18.93
2023-05-09T06:21:23.671Z,19.97
2023-05-09T06:24:07.927Z,20.37
2023-05-09T06:26:37.335Z,16.90
2023-05-09T06:29:08.148Z,19.87
2023-05-09T06:31:39.280Z,18.20
2023-05-09T06:34:06.668Z,20.20
2023-05-09T06:36:34.343Z,18.27
2023-05-09T06:39:01.739Z,18.67
2023-05-09T06:41:28.909Z,18.07
2023-05-09T06:43:56.169Z,19.03
2023-05-09T06:46:23.373Z,19.13
2023-05-09T06:48:50.567Z,22.57
2023-05-09T06:51:17.774Z,18.83
2023-05-09T06:53:44.930Z,17.50
2023-05-09T06:56:12.588Z,17.97
2023-05-09T06:58:39.982Z,16.90
2023-05-09T07:01:07.248Z,17.70
2023-05-09T07:03:34.481Z,18.00
2023-05-09T07:06:01.676Z,17.43
2023-05-09T07:08:28.877Z,18.40
2023-05-09T07:10:56.025Z,17.97
2023-05-09T07:13:23.228Z,18.27
2023-05-09T07:15:50.452Z,20.40
2023-05-09T07:18:18.138Z,17.70
2023-05-09T07:20:45.283Z,18.60
2023-05-09T07:23:12.419Z,17.23
2023-05-09T07:25:39.594Z,17.90
2023-05-09T07:28:07.117Z,18.87
2023-05-09T07:30:34.287Z,16.60
2023-05-09T07:33:01.767Z,19.03
2023-05-09T07:35:29.038Z,17.27
2023-05-09T07:37:56.214Z,18.63
2023-05-09T07:40:23.413Z,18.80
2023-05-09T07:42:53.363Z,17.17
2023-05-09T07:45:22.786Z,20.30
2023-05-09T07:47:51.533Z,17.63
2023-05-09T07:50:18.753Z,19.50
2023-05-09T07:52:46.185Z,16.83
2023-05-09T07:55:13.456Z,16.57
2023-05-09T07:57:40.886Z,18.07
2023-05-09T08:00:08.848Z,18.17
2023-05-09T08:02:41.046Z,18.43
2023-05-09T08:05:08.640Z,16.60
2023-05-09T08:07:36.349Z,16.23
2023-05-09T08:10:03.985Z,16.70
2023-05-09T08:12:31.219Z,15.80
2023-05-09T08:14:58.520Z,16.50
2023-05-09T08:17:25.732Z,15.93
2023-05-09T08:19:52.934Z,15.73
2023-05-09T08:22:20.928Z,15.10
2023-05-09T08:24:48.149Z,15.67
2023-05-09T08:27:15.598Z,15.73
2023-05-09T08:29:43.253Z,16.03
2023-05-09T08:32:10.492Z,15.50
2023-05-09T08:34:37.682Z,16.50
2023-05-09T08:37:05.215Z,18.40
2023-05-09T08:39:34.756Z,16.10
2023-05-09T08:42:02.705Z,16.23
2023-05-09T08:44:30.647Z,17.90
2023-05-09T08:47:01.351Z,17.47
2023-05-09T08:49:28.945Z,16.83
2023-05-09T08:51:56.739Z,17.00
2023-05-09T08:54:25.768Z,16.07
2023-05-09T08:56:52.956Z,17.10
2023-05-09T08:59:20.265Z,18.57
2023-05-09T09:01:48.065Z,15.33
2023-05-09T09:04:15.330Z,16.70
2023-05-09T09:06:43.578Z,16.37
2023-05-09T09:09:12.216Z,16.07
2023-05-09T09:11:41.538Z,16.27
2023-05-09T09:14:16.737Z,15.10
2023-05-09T09:16:45.419Z,16.80
2023-05-09T09:19:14.182Z,18.40
2023-05-09T09:21:43.211Z,14.50
2023-05-09T09:24:15.103Z,14.30
2023-05-09T09:26:49.240Z,15.83
2023-05-09T09:29:17.758Z,16.33
2023-05-09T09:31:46.753Z,15.30
2023-05-09T09:34:14.678Z,15.53
2023-05-09T09:36:41.878Z,16.57
2023-05-09T09:39:09.271Z,16.30
2023-05-09T09:41:40.997Z,16.40
2023-05-09T09:44:08.900Z,16.90
2023-05-09T09:46:43.681Z,16.60
2023-05-09T09:49:11.438Z,15.57
2023-05-09T09:51:38.919Z,16.07
2023-05-09T09:54:09.876Z,16.13
2023-05-09T09:56:44.776Z,14.83
2023-05-09T09:59:16.004Z,14.50
2023-05-09T10:01:56.226Z,15.37
2023-05-09T10:04:23.498Z,15.00
2023-05-09T10:06:54.467Z,15.60
2023-05-09T10:09:23.322Z,14.87
2023-05-09T10:11:51.983Z,14.37
2023-05-09T10:14:20.217Z,16.33
2023-05-09T10:16:48.808Z,15.80
2023-05-09T10:19:20.716Z,15.30
2023-05-09T10:21:50.336Z,15.10
2023-05-09T10:24:18.784Z,16.20
2023-05-09T10:26:46.805Z,15.90
2023-05-09T10:29:22.564Z,15.90
2023-05-09T10:31:51.300Z,17.40
2023-05-09T10:34:20.536Z,16.07
2023-05-09T10:36:47.866Z,17.00
2023-05-09T10:39:15.370Z,15.40
2023-05-09T10:41:42.788Z,16.30
2023-05-09T10:44:10.096Z,14.63
2023-05-09T10:46:38.087Z,15.20
2023-05-09T10:49:05.422Z,15.33
2023-05-09T10:51:32.954Z,14.43
2023-05-09T10:54:00.143Z,14.30
2023-05-09T10:56:36.004Z,15.20
2023-05-09T10:59:03.336Z,15.40
2023-05-09T11:01:35.424Z,15.30
2023-05-09T11:04:03.825Z,15.30
2023-05-09T11:06:41.706Z,16.13
2023-05-09T11:09:28.197Z,15.40
2023-05-09T11:12:15.789Z,15.93
2023-05-09T11:14:44.834Z,17.60
2023-05-09T11:17:24.601Z,15.77
2023-05-09T11:19:51.816Z,15.10
2023-05-09T11:22:22.950Z,17.03
2023-05-09T11:24:52.400Z,16.10
2023-05-09T11:27:20.891Z,17.47
2023-05-09T11:29:52.137Z,17.30
2023-05-09T11:32:22.285Z,17.33
2023-05-09T11:34:50.349Z,16.20
2023-05-09T11:37:19.154Z,17.70
2023-05-09T11:40:00.082Z,17.60
2023-05-09T11:42:30.709Z,16.67
2023-05-09T11:44:58.767Z,17.60
2023-05-09T11:47:28.750Z,16.33
2023-05-09T11:49:56.428Z,15.87
2023-05-09T11:52:23.909Z,16.50
2023-05-09T11:54:52.525Z,17.83
2023-05-09T11:57:20.795Z,18.33
2023-05-09T11:59:48.914Z,17.77
2023-05-09T12:02:19.105Z,15.87
2023-05-09T12:04:46.394Z,17.90
2023-05-09T12:07:13.629Z,14.60
2023-05-09T12:09:41.958Z,16.90
2023-05-09T12:12:11.427Z,18.33
2023-05-09T12:14:39.515Z,15.90
2023-05-09T12:17:11.059Z,15.50
2023-05-09T12:19:38.249Z,16.03
2023-05-09T12:22:06.643Z,14.27
2023-05-09T12:24:36.096Z,16.27
2023-05-09T12:27:03.666Z,14.77
2023-05-09T12:29:31.312Z,14.80
2023-05-09T12:32:00.728Z,15.67
2023-05-09T12:34:28.077Z,15.53
2023-05-09T12:36:56.041Z,16.23
2023-05-09T12:39:24.357Z,15.50
2023-05-09T12:42:01.490Z,13.73
2023-05-09T12:44:30.140Z,13.10
2023-05-09T12:46:58.804Z,12.47
2023-05-09T12:49:26.729Z,13.30
2023-05-09T12:51:57.118Z,11.57
2023-05-09T12:54:25.136Z,12.63
2023-05-09T12:56:53.181Z,13.47
2023-05-09T12:59:25.935Z,14.37
2023-05-09T13:01:54.777Z,16.97
2023-05-09T13:04:22.857Z,16.60
2023-05-09T13:06:51.530Z,14.83
2023-05-09T13:09:19.576Z,16.33
2023-05-09T13:11:47.674Z,16.40
2023-05-09T13:14:15.388Z,15.37
2023-05-09T13:16:42.564Z,16.77
2023-05-09T13:19:09.790Z,16.00
2023-05-09T13:21:39.193Z,15.83
2023-05-09T13:24:06.578Z,15.80
2023-05-09T13:26:34.207Z,15.70
2023-05-09T13:29:01.779Z,16.10
2023-05-09T13:31:29.053Z,15.67
2023-05-09T13:33:56.261Z,14.97
2023-05-09T13:36:24.765Z,16.50
2023-05-09T13:38:54.046Z,15.73
2023-05-09T13:41:22.309Z,15.07
2023-05-09T13:43:50.467Z,16.93
2023-05-09T13:46:18.039Z,16.13
2023-05-09T13:48:47.022Z,15.70
2023-05-09T13:51:14.858Z,15.27
2023-05-09T13:53:47.400Z,14.87
2023-05-09T13:56:16.670Z,16.40
2023-05-09T13:58:44.032Z,17.53
2023-05-09T14:01:11.350Z,15.43
2023-05-09T14:03:40.141Z,16.47
2023-05-09T14:06:10.207Z,14.40
2023-05-09T14:08:39.610Z,15.77
2023-05-09T14:11:08.783Z,15.37
2023-05-09T14:13:37.328Z,15.67
2023-05-09T14:16:05.196Z,15.00
2023-05-09T14:18:32.607Z,15.40
2023-05-09T14:20:59.782Z,16.60
2023-05-09T14:23:27.034Z,17.40
2023-05-09T14:25:54.220Z,13.70
2023-05-09T14:28:21.372Z,16.60
2023-05-09T14:30:48.529Z,15.00
2023-05-09T14:33:15.792Z,15.37
2023-05-09T14:35:43.129Z,15.40
2023-05-09T14:38:12.805Z,14.60
2023-05-09T14:40:40.373Z,15.27
2023-05-09T14:43:09.323Z,14.77
2023-05-09T14:45:36.740Z,20.90
2023-05-09T14:48:04.153Z,15.43
2023-05-09T14:50:31.453Z,15.27
2023-05-09T14:52:59.636Z,15.60
2023-05-09T14:55:27.674Z,15.80
2023-05-09T14:57:56.086Z,15.23
2023-05-09T15:00:25.874Z,13.60
2023-05-09T15:02:53.862Z,14.07
2023-05-09T15:05:21.156Z,13.47
2023-05-09T15:07:48.308Z,13.60
2023-05-09T15:10:18.066Z,15.00
2023-05-09T15:12:46.845Z,15.63
2023-05-09T15:15:18.272Z,15.43
2023-05-09T15:17:46.219Z,15.17
2023-05-09T15:20:19.924Z,17.50
2023-05-09T15:22:48.541Z,16.70
2023-05-09T15:25:16.406Z,18.23
2023-05-09T15:27:43.612Z,16.30
2023-05-09T15:30:11.686Z,16.27
2023-05-09T15:32:41.375Z,15.90
2023-05-09T15:35:09.199Z,17.40
2023-05-09T15:37:36.423Z,17.03
2023-05-09T15:40:04.052Z,17.70
2023-05-09T15:42:33.157Z,16.43
2023-05-09T15:45:01.856Z,17.30
2023-05-09T15:47:29.790Z,18.80
2023-05-09T15:49:57.852Z,16.57
2023-05-09T15:52:25.769Z,17.40
2023-05-09T15:54:55.590Z,17.17
2023-05-09T15:57:33.561Z,18.80
2023-05-09T16:00:03.212Z,24.97
2023-05-09T16:02:40.665Z,20.73
2023-05-09T16:05:08.030Z,20.90
2023-05-09T16:07:35.975Z,21.50
2023-05-09T16:10:03.873Z,21.50
2023-05-09T16:12:32.813Z,21.70
2023-05-09T16:15:00.220Z,20.70
2023-05-09T16:17:27.460Z,20.90
2023-05-09T16:19:55.434Z,22.10
2023-05-09T16:22:22.684Z,22.13
2023-05-09T16:24:49.933Z,22.07
2023-05-09T16:27:17.676Z,20.70
2023-05-09T16:29:44.990Z,21.13
2023-05-09T16:32:12.179Z,22.47
2023-05-09T16:34:39.632Z,22.30
2023-05-09T16:37:07.435Z,20.23
2023-05-09T16:39:35.393Z,20.13
2023-05-09T16:42:05.255Z,19.57
2023-05-09T16:44:32.456Z,20.00
2023-05-09T16:47:01.956Z,21.33
2023-05-09T16:49:29.804Z,17.70
2023-05-09T16:51:59.206Z,19.27
2023-05-09T16:54:26.828Z,21.30
2023-05-09T16:56:54.070Z,24.37
2023-05-09T16:59:21.769Z,23.63
2023-05-09T17:01:50.429Z,20.63
2023-05-09T17:04:17.620Z,19.60
2023-05-09T17:06:44.906Z,19.50
2023-05-09T17:09:12.992Z,17.97
2023-05-09T17:11:42.095Z,17.73
2023-05-09T17:14:09.292Z,19.10
2023-05-09T17:16:38.077Z,19.40
2023-05-09T17:19:05.677Z,19.63
2023-05-09T17:21:32.857Z,21.20
2023-05-09T17:24:02.113Z,20.30
2023-05-09T17:26:29.661Z,21.00
2023-05-09T17:28:59.425Z,21.03
2023-05-09T17:31:28.210Z,22.87
2023-05-09T17:33:56.041Z,22.23
2023-05-09T17:36:23.279Z,21.80
2023-05-09T17:38:50.860Z,23.57
2023-05-09T17:41:18.031Z,23.90
2023-05-09T17:43:45.480Z,23.67
2023-05-09T17:46:14.692Z,20.93
2023-05-09T17:48:43.549Z,23.77
2023-05-09T17:51:10.807Z,24.07
2023-05-09T17:53:38.003Z,26.63
2023-05-09T17:56:06.339Z,25.37
2023-05-09T17:58:33.492Z,22.90
2023-05-09T18:01:00.895Z,21.57
2023-05-09T18:03:28.899Z,20.60
2023-05-09T18:05:57.143Z,19.53
2023-05-09T18:08:24.391Z,18.77
2023-05-09T18:10:54.403Z,18.30
2023-05-09T18:13:21.661Z,16.50
2023-05-09T18:15:49.133Z,16.30
2023-05-09T18:18:16.796Z,14.13
2023-05-09T18:20:46.987Z,14.90
2023-05-09T18:23:15.395Z,15.33
2023-05-09T18:25:42.598Z,16.53
2023-05-09T18:28:11.090Z,14.97
2023-05-09T18:30:39.391Z,12.17
2023-05-09T18:33:08.035Z,12.33
2023-05-09T18:35:35.397Z,9.73
2023-05-09T18:38:03.043Z,9.40
2023-05-09T18:40:32.460Z,9.47
2023-05-09T18:42:59.748Z,10.07
2023-05-09T18:45:27.128Z,9.70
2023-05-09T18:47:55.845Z,9.30
2023-05-09T18:50:24.180Z,10.63
2023-05-09T18:52:51.420Z,11.07
2023-05-09T18:55:19.972Z,10.33
2023-05-09T18:57:47.464Z,9.73
2023-05-09T19:00:15.243Z,9.07
2023-05-09T19:02:42.866Z,9.40
2023-05-09T19:05:10.753Z,8.60
2023-05-09T19:07:38.608Z,8.33
2023-05-09T19:10:08.215Z,8.00
2023-05-09T19:12:35.562Z,8.90
2023-05-09T19:15:03.378Z,9.30
2023-05-09T19:17:31.780Z,8.30
2023-05-09T19:19:59.418Z,8.60
2023-05-09T19:22:26.722Z,7.00
2023-05-09T19:24:54.051Z,6.80
2023-05-09T19:27:21.349Z,8.70
2023-05-09T19:29:49.904Z,10.70
2023-05-09T19:32:20.371Z,9.60
2023-05-09T19:34:49.071Z,9.13
2023-05-09T19:37:17.034Z,8.23
2023-05-09T19:39:45.148Z,8.50
2023-05-09T19:42:14.779Z,8.07
2023-05-09T19:44:44.150Z,9.13
2023-05-09T19:47:11.416Z,7.80
2023-05-09T19:49:41.285Z,8.77
2023-05-09T19:52:08.538Z,8.93
2023-05-09T19:54:36.275Z,8.70
2023-05-09T19:57:06.249Z,7.23
2023-05-09T19:59:33.666Z,10.67
2023-05-09T20:02:02.401Z,7.40
2023-05-09T20:04:35.707Z,6.73
2023-05-09T20:07:03.380Z,7.47
2023-05-09T20:09:32.249Z,7.80
2023-05-09T20:12:00.141Z,7.73
2023-05-09T20:14:29.554Z,6.63
2023-05-09T20:16:57.956Z,6.43
2023-05-09T20:19:25.263Z,8.47
2023-05-09T20:21:52.514Z,8.37
2023-05-09T20:24:20.080Z,7.40
2023-05-09T20:26:48.111Z,7.83
2023-05-09T20:29:15.481Z,8.93
2023-05-09T20:31:42.716Z,7.03
2023-05-09T20:34:16.033Z,8.03
2023-05-09T20:36:43.577Z,8.90
2023-05-09T20:39:11.794Z,6.30
2023-05-09T20:41:39.227Z,6.67
2023-05-09T20:44:06.742Z,13.30
2023-05-09T20:46:35.565Z,9.17
2023-05-09T20:49:04.072Z,11.10
2023-05-09T20:51:31.600Z,8.27
2023-05-09T20:53:59.204Z,10.23
2023-05-09T20:56:28.514Z,10.53
2023-05-09T20:58:56.625Z,9.57
2023-05-09T21:01:23.886Z,9.20
2023-05-09T21:03:51.110Z,5.77
2023-05-09T21:06:18.335Z,7.50
2023-05-09T21:08:45.555Z,8.20
2023-05-09T21:11:12.744Z,7.10
2023-05-09T21:13:39.936Z,7.80
2023-05-09T21:16:07.131Z,7.90
2023-05-09T21:18:34.313Z,7.30
2023-05-09T21:21:02.720Z,8.30
2023-05-09T21:23:29.877Z,8.37
2023-05-09T21:25:57.839Z,6.80
2023-05-09T21:28:25.408Z,7.03
2023-05-09T21:30:54.591Z,6.90
2023-05-09T21:33:22.000Z,7.13
2023-05-09T21:35:49.155Z,6.00
2023-05-09T21:38:17.176Z,7.20
2023-05-09T21:40:44.403Z,7.00
2023-05-09T21:43:11.536Z,7.60
2023-05-09T21:45:39.063Z,7.30
2023-05-09T21:48:06.369Z,7.10
2023-05-09T21:50:33.531Z,6.60
2023-05-09T21:53:01.389Z,7.30
2023-05-09T21:55:30.839Z,6.60
2023-05-09T21:57:59.069Z,6.63
2023-05-09T22:00:26.294Z,7.50
2023-05-09T22:02:53.598Z,6.97
2023-05-09T22:05:20.825Z,7.60
2023-05-09T22:07:48.032Z,6.10
2023-05-09T22:10:15.488Z,6.83
2023-05-09T22:12:42.959Z,6.53
2023-05-09T22:15:10.214Z,7.77
2023-05-09T22:17:37.474Z,6.30
2023-05-09T22:20:05.030Z,7.13
2023-05-09T22:22:33.226Z,6.80
2023-05-09T22:25:00.483Z,7.13
2023-05-09T22:27:27.678Z,6.17
2023-05-09T22:29:55.380Z,6.37
2023-05-09T22:32:23.183Z,5.87
2023-05-09T22:34:50.722Z,6.53
2023-05-09T22:37:18.162Z,6.20
2023-05-09T22:39:46.190Z,5.83
2023-05-09T22:42:13.398Z,6.23
2023-05-09T22:44:40.845Z,6.57
2023-05-09T22:47:08.133Z,6.63
2023-05-09T22:49:35.507Z,6.00
2023-05-09T22:52:03.123Z,6.20
2023-05-09T22:54:30.262Z,6.53
2023-05-09T22:56:57.446Z,6.97
2023-05-09T22:59:24.639Z,6.77
2023-05-09T23:01:52.697Z,6.70
2023-05-09T23:04:20.036Z,7.13
2023-05-09T23:06:47.442Z,9.13
2023-05-09T23:09:14.957Z,7.97
2023-05-09T23:11:43.221Z,7.77
2023-05-09T23:14:10.533Z,7.43
2023-05-09T23:16:37.870Z,6.50
2023-05-09T23:19:06.282Z,5.93
2023-05-09T23:21:34.061Z,6.00
2023-05-09T23:24:01.562Z,8.77
2023-05-09T23:26:29.052Z,7.60
2023-05-09T23:28:57.209Z,8.00
2023-05-09T23:31:24.761Z,6.60
2023-05-09T23:33:52.495Z,6.87
2023-05-09T23:36:20.350Z,6.20
2023-05-09T23:38:47.864Z,6.83
2023-05-09T23:41:15.530Z,6.87
2023-05-09T23:43:42.841Z,6.47
2023-05-09T23:46:10.275Z,6.60
2023-05-09T23:48:37.668Z,5.80
2023-05-09T23:51:05.301Z,4.10
2023-05-09T23:53:35.332Z,3.30
2023-05-09T23:56:03.356Z,3.50
2023-05-09T23:58:30.550Z,3.70
